sensor_id;sensor_type;location;lat;lon;timestamp;P1;durP1;ratioP1;P2;durP2;ratioP2
65238;SDS011;51827;51.186;6.926;2024-03-08T00:00:41;3.30;;;2.50;;
65238;SDS011;51827;51.186;6.926;2024-03-08T00:01:42;4.53;;;3.00;;
65238;SDS011;51827;51.186;6.926;2024-03-08T00:02:42;3.43;;;2.77;;
65238;SDS011;51827;51.186;6.926;2024-03-08T00:03:42;4.07;;;2.90;;
65238;SDS011;51827;51.186;6.926;2024-03-08T00:04:43;6.23;;;2.67;;
65238;SDS011;51827;51.186;6.926;2024-03-08T00:05:43;3.63;;;2.70;;
65238;SDS011;51827;51.186;6.926;2024-03-08T00:06:43;3.63;;;2.70;;
65238;SDS011;51827;51.186;6.926;2024-03-08T00:07:43;3.77;;;2.70;;
65238;SDS011;51827;51.186;6.926;2024-03-08T00:08:44;4.57;;;3.07;;
65238;SDS011;51827;51.186;6.926;2024-03-08T00:09:44;4.33;;;2.93;;
65238;SDS011;51827;51.186;6.926;2024-03-08T00:10:44;3.93;;;2.87;;
65238;SDS011;51827;51.186;6.926;2024-03-08T00:11:44;3.97;;;2.57;;
65238;SDS011;51827;51.186;6.926;2024-03-08T00:12:45;4.57;;;2.90;;
65238;SDS011;51827;51.186;6.926;2024-03-08T00:13:45;4.90;;;2.88;;
65238;SDS011;51827;51.186;6.926;2024-03-08T00:14:45;4.73;;;2.70;;
65238;SDS011;51827;51.186;6.926;2024-03-08T00:15:45;4.63;;;2.53;;
65238;SDS011;51827;51.186;6.926;2024-03-08T00:16:47;4.75;;;2.70;;
65238;SDS011;51827;51.186;6.926;2024-03-08T00:17:47;4.53;;;3.10;;
65238;SDS011;51827;51.186;6.926;2024-03-08T00:18:47;3.23;;;2.63;;
65238;SDS011;51827;51.186;6.926;2024-03-08T00:19:48;5.23;;;2.93;;
65238;SDS011;51827;51.186;6.926;2024-03-08T00:20:48;4.07;;;3.10;;
65238;SDS011;51827;51.186;6.926;2024-03-08T00:21:49;5.10;;;3.00;;
65238;SDS011;51827;51.186;6.926;2024-03-08T00:22:49;4.03;;;2.77;;
65238;SDS011;51827;51.186;6.926;2024-03-08T00:23:49;4.17;;;2.87;;
65238;SDS011;51827;51.186;6.926;2024-03-08T00:24:49;4.80;;;2.60;;
65238;SDS011;51827;51.186;6.926;2024-03-08T00:25:50;4.23;;;2.90;;
65238;SDS011;51827;51.186;6.926;2024-03-08T00:26:50;3.80;;;2.80;;
65238;SDS011;51827;51.186;6.926;2024-03-08T00:27:50;4.53;;;3.10;;
65238;SDS011;51827;51.186;6.926;2024-03-08T00:28:50;4.10;;;2.80;;
65238;SDS011;51827;51.186;6.926;2024-03-08T00:29:51;4.57;;;2.53;;
65238;SDS011;51827;51.186;6.926;2024-03-08T00:30:51;4.63;;;2.87;;
65238;SDS011;51827;51.186;6.926;2024-03-08T00:31:51;4.23;;;2.60;;
65238;SDS011;51827;51.186;6.926;2024-03-08T00:32:51;4.50;;;2.90;;
65238;SDS011;51827;51.186;6.926;2024-03-08T00:33:52;4.40;;;2.80;;
65238;SDS011;51827;51.186;6.926;2024-03-08T00:34:52;4.93;;;2.60;;
65238;SDS011;51827;51.186;6.926;2024-03-08T00:35:52;4.63;;;3.13;;
65238;SDS011;51827;51.186;6.926;2024-03-08T00:36:53;4.72;;;2.80;;
65238;SDS011;51827;51.186;6.926;2024-03-08T00:37:53;3.60;;;2.60;;
65238;SDS011;51827;51.186;6.926;2024-03-08T00:38:53;4.03;;;2.70;;
65238;SDS011;51827;51.186;6.926;2024-03-08T00:39:54;4.90;;;3.03;;
65238;SDS011;51827;51.186;6.926;2024-03-08T00:40:54;4.63;;;2.87;;
65238;SDS011;51827;51.186;6.926;2024-03-08T00:41:54;4.40;;;2.90;;
65238;SDS011;51827;51.186;6.926;2024-03-08T00:42:54;4.57;;;2.70;;
65238;SDS011;51827;51.186;6.926;2024-03-08T00:43:54;3.60;;;2.70;;
65238;SDS011;51827;51.186;6.926;2024-03-08T00:44:55;4.17;;;2.90;;
65238;SDS011;51827;51.186;6.926;2024-03-08T00:45:55;4.20;;;2.70;;
65238;SDS011;51827;51.186;6.926;2024-03-08T00:46:56;4.03;;;3.00;;
65238;SDS011;51827;51.186;6.926;2024-03-08T00:47:56;4.00;;;2.97;;
65238;SDS011;51827;51.186;6.926;2024-03-08T00:48:56;4.10;;;2.70;;
65238;SDS011;51827;51.186;6.926;2024-03-08T00:49:56;4.90;;;2.77;;
65238;SDS011;51827;51.186;6.926;2024-03-08T00:50:57;3.58;;;2.72;;
65238;SDS011;51827;51.186;6.926;2024-03-08T00:51:57;3.60;;;2.70;;
65238;SDS011;51827;51.186;6.926;2024-03-08T00:52:57;3.87;;;2.73;;
65238;SDS011;51827;51.186;6.926;2024-03-08T00:53:57;4.07;;;2.80;;
65238;SDS011;51827;51.186;6.926;2024-03-08T00:54:58;4.00;;;2.70;;
65238;SDS011;51827;51.186;6.926;2024-03-08T00:55:58;4.00;;;2.80;;
65238;SDS011;51827;51.186;6.926;2024-03-08T00:56:58;5.40;;;2.93;;
65238;SDS011;51827;51.186;6.926;2024-03-08T00:57:59;3.27;;;2.70;;
65238;SDS011;51827;51.186;6.926;2024-03-08T00:58:59;3.43;;;2.60;;
65238;SDS011;51827;51.186;6.926;2024-03-08T00:59:59;4.47;;;3.00;;
65238;SDS011;51827;51.186;6.926;2024-03-08T01:00:59;3.47;;;2.43;;
65238;SDS011;51827;51.186;6.926;2024-03-08T01:02:00;3.80;;;2.70;;
65238;SDS011;51827;51.186;6.926;2024-03-08T01:03:00;3.92;;;2.63;;
65238;SDS011;51827;51.186;6.926;2024-03-08T01:04:01;4.00;;;2.80;;
65238;SDS011;51827;51.186;6.926;2024-03-08T01:05:01;4.93;;;2.77;;
65238;SDS011;51827;51.186;6.926;2024-03-08T01:06:02;3.85;;;2.55;;
65238;SDS011;51827;51.186;6.926;2024-03-08T01:07:02;3.30;;;2.40;;
65238;SDS011;51827;51.186;6.926;2024-03-08T01:08:02;3.63;;;2.80;;
65238;SDS011;51827;51.186;6.926;2024-03-08T01:09:03;4.05;;;2.50;;
65238;SDS011;51827;51.186;6.926;2024-03-08T01:10:04;4.27;;;3.00;;
65238;SDS011;51827;51.186;6.926;2024-03-08T01:11:05;3.38;;;2.22;;
65238;SDS011;51827;51.186;6.926;2024-03-08T01:12:05;3.53;;;2.97;;
65238;SDS011;51827;51.186;6.926;2024-03-08T01:13:05;5.40;;;3.00;;
65238;SDS011;51827;51.186;6.926;2024-03-08T01:14:05;4.50;;;3.13;;
65238;SDS011;51827;51.186;6.926;2024-03-08T01:15:06;3.17;;;2.57;;
65238;SDS011;51827;51.186;6.926;2024-03-08T01:16:06;3.65;;;2.72;;
65238;SDS011;51827;51.186;6.926;2024-03-08T01:17:07;5.05;;;3.20;;
65238;SDS011;51827;51.186;6.926;2024-03-08T01:18:07;3.83;;;2.77;;
65238;SDS011;51827;51.186;6.926;2024-03-08T01:19:07;4.35;;;2.90;;
65238;SDS011;51827;51.186;6.926;2024-03-08T01:20:08;4.03;;;2.83;;
65238;SDS011;51827;51.186;6.926;2024-03-08T01:21:08;5.22;;;2.70;;
65238;SDS011;51827;51.186;6.926;2024-03-08T01:22:08;3.57;;;2.67;;
65238;SDS011;51827;51.186;6.926;2024-03-08T01:23:09;4.17;;;2.87;;
65238;SDS011;51827;51.186;6.926;2024-03-08T01:24:09;3.87;;;2.67;;
65238;SDS011;51827;51.186;6.926;2024-03-08T01:25:09;3.53;;;2.60;;
65238;SDS011;51827;51.186;6.926;2024-03-08T01:26:09;3.63;;;2.60;;
65238;SDS011;51827;51.186;6.926;2024-03-08T01:27:09;3.87;;;2.87;;
65238;SDS011;51827;51.186;6.926;2024-03-08T01:28:10;3.90;;;2.90;;
65238;SDS011;51827;51.186;6.926;2024-03-08T01:29:10;3.70;;;2.57;;
65238;SDS011;51827;51.186;6.926;2024-03-08T01:30:10;4.27;;;3.03;;
65238;SDS011;51827;51.186;6.926;2024-03-08T01:31:10;3.73;;;2.70;;
65238;SDS011;51827;51.186;6.926;2024-03-08T01:32:11;3.73;;;2.80;;
65238;SDS011;51827;51.186;6.926;2024-03-08T01:33:11;5.43;;;2.90;;
65238;SDS011;51827;51.186;6.926;2024-03-08T01:34:11;3.93;;;2.90;;
65238;SDS011;51827;51.186;6.926;2024-03-08T01:35:11;3.47;;;2.57;;
65238;SDS011;51827;51.186;6.926;2024-03-08T01:36:12;4.13;;;2.77;;
65238;SDS011;51827;51.186;6.926;2024-03-08T01:37:12;3.33;;;2.67;;
65238;SDS011;51827;51.186;6.926;2024-03-08T01:38:12;4.70;;;2.87;;
65238;SDS011;51827;51.186;6.926;2024-03-08T01:39:12;4.13;;;2.90;;
65238;SDS011;51827;51.186;6.926;2024-03-08T01:40:13;4.43;;;2.87;;
65238;SDS011;51827;51.186;6.926;2024-03-08T01:41:13;4.13;;;2.87;;
65238;SDS011;51827;51.186;6.926;2024-03-08T01:42:13;3.70;;;2.60;;
65238;SDS011;51827;51.186;6.926;2024-03-08T01:43:26;3.97;;;2.90;;
65238;SDS011;51827;51.186;6.926;2024-03-08T01:44:27;3.78;;;3.00;;
65238;SDS011;51827;51.186;6.926;2024-03-08T01:45:28;3.70;;;2.67;;
65238;SDS011;51827;51.186;6.926;2024-03-08T01:46:28;4.13;;;2.80;;
65238;SDS011;51827;51.186;6.926;2024-03-08T01:47:29;5.13;;;2.78;;
65238;SDS011;51827;51.186;6.926;2024-03-08T01:48:29;3.67;;;2.63;;
65238;SDS011;51827;51.186;6.926;2024-03-08T01:49:30;3.58;;;2.55;;
65238;SDS011;51827;51.186;6.926;2024-03-08T01:50:31;3.78;;;2.88;;
65238;SDS011;51827;51.186;6.926;2024-03-08T01:51:31;3.73;;;2.70;;
65238;SDS011;51827;51.186;6.926;2024-03-08T01:52:32;4.30;;;2.83;;
65238;SDS011;51827;51.186;6.926;2024-03-08T01:54:34;4.82;;;2.90;;
65238;SDS011;51827;51.186;6.926;2024-03-08T01:55:35;4.18;;;2.70;;
65238;SDS011;51827;51.186;6.926;2024-03-08T01:56:36;6.15;;;2.75;;
65238;SDS011;51827;51.186;6.926;2024-03-08T01:58:37;3.60;;;2.60;;
65238;SDS011;51827;51.186;6.926;2024-03-08T01:59:39;3.58;;;2.70;;
65238;SDS011;51827;51.186;6.926;2024-03-08T02:00:39;3.72;;;2.80;;
65238;SDS011;51827;51.186;6.926;2024-03-08T02:01:40;5.13;;;3.00;;
65238;SDS011;51827;51.186;6.926;2024-03-08T02:02:41;3.60;;;2.70;;
65238;SDS011;51827;51.186;6.926;2024-03-08T02:03:42;3.92;;;2.92;;
65238;SDS011;51827;51.186;6.926;2024-03-08T02:04:44;3.95;;;2.80;;
65238;SDS011;51827;51.186;6.926;2024-03-08T02:05:44;4.85;;;2.60;;
65238;SDS011;51827;51.186;6.926;2024-03-08T02:06:44;3.73;;;2.70;;
65238;SDS011;51827;51.186;6.926;2024-03-08T02:07:45;3.45;;;2.70;;
65238;SDS011;51827;51.186;6.926;2024-03-08T02:08:45;3.23;;;2.47;;
65238;SDS011;51827;51.186;6.926;2024-03-08T02:09:46;4.07;;;2.75;;
65238;SDS011;51827;51.186;6.926;2024-03-08T02:10:46;4.73;;;2.80;;
65238;SDS011;51827;51.186;6.926;2024-03-08T02:11:46;3.93;;;2.63;;
65238;SDS011;51827;51.186;6.926;2024-03-08T02:12:47;4.17;;;3.00;;
65238;SDS011;51827;51.186;6.926;2024-03-08T02:13:47;4.00;;;2.90;;
65238;SDS011;51827;51.186;6.926;2024-03-08T02:14:47;5.53;;;2.90;;
65238;SDS011;51827;51.186;6.926;2024-03-08T02:15:54;3.67;;;2.73;;
65238;SDS011;51827;51.186;6.926;2024-03-08T02:16:55;3.22;;;2.55;;
65238;SDS011;51827;51.186;6.926;2024-03-08T02:18:00;3.38;;;2.47;;
65238;SDS011;51827;51.186;6.926;2024-03-08T02:19:00;3.60;;;2.80;;
65238;SDS011;51827;51.186;6.926;2024-03-08T02:20:00;3.97;;;2.67;;
65238;SDS011;51827;51.186;6.926;2024-03-08T02:21:01;3.93;;;2.70;;
65238;SDS011;51827;51.186;6.926;2024-03-08T02:22:03;3.65;;;2.70;;
65238;SDS011;51827;51.186;6.926;2024-03-08T02:23:03;5.00;;;3.10;;
65238;SDS011;51827;51.186;6.926;2024-03-08T02:24:04;5.32;;;3.00;;
65238;SDS011;51827;51.186;6.926;2024-03-08T02:26:05;4.27;;;2.70;;
65238;SDS011;51827;51.186;6.926;2024-03-08T02:27:06;3.57;;;2.83;;
65238;SDS011;51827;51.186;6.926;2024-03-08T02:28:06;3.40;;;2.60;;
65238;SDS011;51827;51.186;6.926;2024-03-08T02:29:06;4.68;;;3.28;;
65238;SDS011;51827;51.186;6.926;2024-03-08T02:30:07;4.18;;;3.10;;
65238;SDS011;51827;51.186;6.926;2024-03-08T02:31:08;3.90;;;2.75;;
65238;SDS011;51827;51.186;6.926;2024-03-08T02:32:08;4.73;;;2.97;;
65238;SDS011;51827;51.186;6.926;2024-03-08T02:33:08;4.30;;;3.00;;
65238;SDS011;51827;51.186;6.926;2024-03-08T02:34:08;4.37;;;3.17;;
65238;SDS011;51827;51.186;6.926;2024-03-08T02:35:09;4.37;;;3.13;;
65238;SDS011;51827;51.186;6.926;2024-03-08T02:36:09;3.33;;;2.60;;
65238;SDS011;51827;51.186;6.926;2024-03-08T02:37:09;4.07;;;3.07;;
65238;SDS011;51827;51.186;6.926;2024-03-08T02:38:09;3.73;;;2.50;;
65238;SDS011;51827;51.186;6.926;2024-03-08T02:39:10;4.77;;;2.80;;
65238;SDS011;51827;51.186;6.926;2024-03-08T02:40:10;3.60;;;2.77;;
65238;SDS011;51827;51.186;6.926;2024-03-08T02:41:11;3.92;;;2.75;;
65238;SDS011;51827;51.186;6.926;2024-03-08T02:42:11;4.00;;;2.60;;
65238;SDS011;51827;51.186;6.926;2024-03-08T02:43:11;5.53;;;3.50;;
65238;SDS011;51827;51.186;6.926;2024-03-08T02:44:13;4.00;;;2.60;;
65238;SDS011;51827;51.186;6.926;2024-03-08T02:45:13;3.73;;;2.77;;
65238;SDS011;51827;51.186;6.926;2024-03-08T02:46:13;4.05;;;2.90;;
65238;SDS011;51827;51.186;6.926;2024-03-08T02:47:13;5.27;;;2.80;;
65238;SDS011;51827;51.186;6.926;2024-03-08T02:48:14;3.77;;;2.73;;
65238;SDS011;51827;51.186;6.926;2024-03-08T02:49:15;4.32;;;2.88;;
65238;SDS011;51827;51.186;6.926;2024-03-08T02:50:15;4.07;;;2.83;;
65238;SDS011;51827;51.186;6.926;2024-03-08T02:51:16;3.92;;;2.67;;
65238;SDS011;51827;51.186;6.926;2024-03-08T02:52:16;3.93;;;2.80;;
65238;SDS011;51827;51.186;6.926;2024-03-08T02:53:16;4.23;;;3.00;;
65238;SDS011;51827;51.186;6.926;2024-03-08T02:54:16;4.00;;;2.87;;
65238;SDS011;51827;51.186;6.926;2024-03-08T02:55:17;3.50;;;2.57;;
65238;SDS011;51827;51.186;6.926;2024-03-08T02:56:17;4.37;;;2.77;;
65238;SDS011;51827;51.186;6.926;2024-03-08T02:57:17;4.03;;;2.90;;
65238;SDS011;51827;51.186;6.926;2024-03-08T02:58:18;4.17;;;2.97;;
65238;SDS011;51827;51.186;6.926;2024-03-08T02:59:18;5.80;;;3.03;;
65238;SDS011;51827;51.186;6.926;2024-03-08T03:00:18;4.00;;;3.07;;
65238;SDS011;51827;51.186;6.926;2024-03-08T03:01:19;10.73;;;3.00;;
65238;SDS011;51827;51.186;6.926;2024-03-08T03:02:19;4.53;;;3.00;;
65238;SDS011;51827;51.186;6.926;2024-03-08T03:03:19;4.33;;;2.93;;
65238;SDS011;51827;51.186;6.926;2024-03-08T03:04:19;3.47;;;2.63;;
65238;SDS011;51827;51.186;6.926;2024-03-08T03:05:20;3.50;;;2.70;;
65238;SDS011;51827;51.186;6.926;2024-03-08T03:06:20;3.35;;;2.50;;
65238;SDS011;51827;51.186;6.926;2024-03-08T03:07:21;4.47;;;2.93;;
65238;SDS011;51827;51.186;6.926;2024-03-08T03:08:21;3.65;;;2.80;;
65238;SDS011;51827;51.186;6.926;2024-03-08T03:09:22;4.25;;;2.85;;
65238;SDS011;51827;51.186;6.926;2024-03-08T03:10:22;3.97;;;2.80;;
65238;SDS011;51827;51.186;6.926;2024-03-08T03:11:22;3.90;;;3.10;;
65238;SDS011;51827;51.186;6.926;2024-03-08T03:12:23;4.13;;;2.90;;
65238;SDS011;51827;51.186;6.926;2024-03-08T03:13:23;3.70;;;2.80;;
65238;SDS011;51827;51.186;6.926;2024-03-08T03:14:23;3.60;;;2.70;;
65238;SDS011;51827;51.186;6.926;2024-03-08T03:15:23;4.10;;;2.80;;
65238;SDS011;51827;51.186;6.926;2024-03-08T03:16:24;4.17;;;2.63;;
65238;SDS011;51827;51.186;6.926;2024-03-08T03:17:24;3.40;;;2.63;;
65238;SDS011;51827;51.186;6.926;2024-03-08T03:18:24;5.25;;;3.10;;
65238;SDS011;51827;51.186;6.926;2024-03-08T03:19:25;4.07;;;2.90;;
65238;SDS011;51827;51.186;6.926;2024-03-08T03:20:25;4.47;;;2.70;;
65238;SDS011;51827;51.186;6.926;2024-03-08T03:21:27;4.77;;;3.00;;
65238;SDS011;51827;51.186;6.926;2024-03-08T03:22:28;3.83;;;2.80;;
65238;SDS011;51827;51.186;6.926;2024-03-08T03:23:28;5.33;;;2.90;;
65238;SDS011;51827;51.186;6.926;2024-03-08T03:24:29;4.30;;;3.00;;
65238;SDS011;51827;51.186;6.926;2024-03-08T03:25:29;4.10;;;3.17;;
65238;SDS011;51827;51.186;6.926;2024-03-08T03:26:29;4.47;;;3.13;;
65238;SDS011;51827;51.186;6.926;2024-03-08T03:27:29;4.60;;;3.00;;
65238;SDS011;51827;51.186;6.926;2024-03-08T03:28:30;4.85;;;2.90;;
65238;SDS011;51827;51.186;6.926;2024-03-08T03:29:30;3.97;;;2.77;;
65238;SDS011;51827;51.186;6.926;2024-03-08T03:30:30;4.53;;;2.80;;
65238;SDS011;51827;51.186;6.926;2024-03-08T03:31:30;3.90;;;2.83;;
65238;SDS011;51827;51.186;6.926;2024-03-08T03:32:31;3.50;;;2.80;;
65238;SDS011;51827;51.186;6.926;2024-03-08T03:33:31;3.93;;;2.60;;
65238;SDS011;51827;51.186;6.926;2024-03-08T03:34:31;4.23;;;2.83;;
65238;SDS011;51827;51.186;6.926;2024-03-08T03:35:32;3.47;;;2.60;;
65238;SDS011;51827;51.186;6.926;2024-03-08T03:36:32;4.40;;;2.90;;
65238;SDS011;51827;51.186;6.926;2024-03-08T03:37:32;4.83;;;2.90;;
65238;SDS011;51827;51.186;6.926;2024-03-08T03:38:33;3.60;;;2.63;;
65238;SDS011;51827;51.186;6.926;2024-03-08T03:39:33;4.13;;;3.20;;
65238;SDS011;51827;51.186;6.926;2024-03-08T03:40:33;3.77;;;2.90;;
65238;SDS011;51827;51.186;6.926;2024-03-08T03:41:34;3.63;;;2.80;;
65238;SDS011;51827;51.186;6.926;2024-03-08T03:42:34;4.30;;;2.73;;
65238;SDS011;51827;51.186;6.926;2024-03-08T03:43:34;4.10;;;2.70;;
65238;SDS011;51827;51.186;6.926;2024-03-08T03:44:35;4.25;;;2.75;;
65238;SDS011;51827;51.186;6.926;2024-03-08T03:45:35;4.23;;;3.07;;
65238;SDS011;51827;51.186;6.926;2024-03-08T03:46:35;3.57;;;2.93;;
65238;SDS011;51827;51.186;6.926;2024-03-08T03:47:36;4.30;;;2.97;;
65238;SDS011;51827;51.186;6.926;2024-03-08T03:48:36;3.87;;;2.97;;
65238;SDS011;51827;51.186;6.926;2024-03-08T03:49:36;3.73;;;2.70;;
65238;SDS011;51827;51.186;6.926;2024-03-08T03:50:36;3.73;;;2.87;;
65238;SDS011;51827;51.186;6.926;2024-03-08T03:51:37;4.17;;;2.80;;
65238;SDS011;51827;51.186;6.926;2024-03-08T03:52:37;4.23;;;2.77;;
65238;SDS011;51827;51.186;6.926;2024-03-08T03:53:37;3.57;;;2.77;;
65238;SDS011;51827;51.186;6.926;2024-03-08T03:54:37;4.10;;;2.80;;
65238;SDS011;51827;51.186;6.926;2024-03-08T03:56:40;5.72;;;2.92;;
65238;SDS011;51827;51.186;6.926;2024-03-08T03:57:41;4.33;;;2.97;;
65238;SDS011;51827;51.186;6.926;2024-03-08T03:58:41;3.40;;;2.77;;
65238;SDS011;51827;51.186;6.926;2024-03-08T03:59:41;4.47;;;2.97;;
65238;SDS011;51827;51.186;6.926;2024-03-08T04:00:41;3.93;;;2.83;;
65238;SDS011;51827;51.186;6.926;2024-03-08T04:01:42;3.90;;;2.80;;
65238;SDS011;51827;51.186;6.926;2024-03-08T04:02:42;3.83;;;2.72;;
65238;SDS011;51827;51.186;6.926;2024-03-08T04:03:42;4.43;;;2.80;;
65238;SDS011;51827;51.186;6.926;2024-03-08T04:04:43;3.73;;;2.80;;
65238;SDS011;51827;51.186;6.926;2024-03-08T04:05:43;4.20;;;3.17;;
65238;SDS011;51827;51.186;6.926;2024-03-08T04:06:43;3.40;;;2.50;;
65238;SDS011;51827;51.186;6.926;2024-03-08T04:07:43;4.03;;;2.80;;
65238;SDS011;51827;51.186;6.926;2024-03-08T04:08:44;3.43;;;2.63;;
65238;SDS011;51827;51.186;6.926;2024-03-08T04:09:44;4.00;;;2.77;;
65238;SDS011;51827;51.186;6.926;2024-03-08T04:10:44;4.50;;;2.67;;
65238;SDS011;51827;51.186;6.926;2024-03-08T04:11:45;3.50;;;2.80;;
65238;SDS011;51827;51.186;6.926;2024-03-08T04:12:45;4.38;;;2.78;;
65238;SDS011;51827;51.186;6.926;2024-03-08T04:13:45;3.47;;;2.80;;
65238;SDS011;51827;51.186;6.926;2024-03-08T04:14:45;4.20;;;2.60;;
65238;SDS011;51827;51.186;6.926;2024-03-08T04:15:46;3.90;;;2.77;;
65238;SDS011;51827;51.186;6.926;2024-03-08T04:16:46;3.33;;;2.60;;
65238;SDS011;51827;51.186;6.926;2024-03-08T04:17:46;4.00;;;2.83;;
65238;SDS011;51827;51.186;6.926;2024-03-08T04:18:47;3.67;;;2.83;;
65238;SDS011;51827;51.186;6.926;2024-03-08T04:19:47;4.50;;;2.87;;
65238;SDS011;51827;51.186;6.926;2024-03-08T04:20:47;3.87;;;2.97;;
65238;SDS011;51827;51.186;6.926;2024-03-08T04:21:47;4.03;;;2.97;;
65238;SDS011;51827;51.186;6.926;2024-03-08T04:22:48;4.10;;;2.87;;
65238;SDS011;51827;51.186;6.926;2024-03-08T04:23:48;3.90;;;2.90;;
65238;SDS011;51827;51.186;6.926;2024-03-08T04:24:48;3.70;;;2.53;;
65238;SDS011;51827;51.186;6.926;2024-03-08T04:25:48;3.93;;;2.93;;
65238;SDS011;51827;51.186;6.926;2024-03-08T04:26:49;3.80;;;3.07;;
65238;SDS011;51827;51.186;6.926;2024-03-08T04:27:49;3.53;;;2.90;;
65238;SDS011;51827;51.186;6.926;2024-03-08T04:28:49;4.13;;;3.10;;
65238;SDS011;51827;51.186;6.926;2024-03-08T04:29:49;4.57;;;2.80;;
65238;SDS011;51827;51.186;6.926;2024-03-08T04:30:49;4.50;;;2.97;;
65238;SDS011;51827;51.186;6.926;2024-03-08T04:31:50;3.87;;;2.93;;
65238;SDS011;51827;51.186;6.926;2024-03-08T04:32:50;4.70;;;2.80;;
65238;SDS011;51827;51.186;6.926;2024-03-08T04:33:50;4.30;;;3.00;;
65238;SDS011;51827;51.186;6.926;2024-03-08T04:34:50;5.27;;;3.10;;
65238;SDS011;51827;51.186;6.926;2024-03-08T04:35:51;4.20;;;2.83;;
65238;SDS011;51827;51.186;6.926;2024-03-08T04:36:51;3.90;;;2.77;;
65238;SDS011;51827;51.186;6.926;2024-03-08T04:37:51;3.67;;;3.00;;
65238;SDS011;51827;51.186;6.926;2024-03-08T04:38:51;6.37;;;3.07;;
65238;SDS011;51827;51.186;6.926;2024-03-08T04:39:52;3.87;;;2.97;;
65238;SDS011;51827;51.186;6.926;2024-03-08T04:40:52;3.77;;;2.80;;
65238;SDS011;51827;51.186;6.926;2024-03-08T04:41:52;3.37;;;2.50;;
65238;SDS011;51827;51.186;6.926;2024-03-08T04:42:53;4.30;;;2.90;;
65238;SDS011;51827;51.186;6.926;2024-03-08T04:43:53;3.67;;;2.70;;
65238;SDS011;51827;51.186;6.926;2024-03-08T04:44:53;4.33;;;2.83;;
65238;SDS011;51827;51.186;6.926;2024-03-08T04:45:54;4.77;;;2.80;;
65238;SDS011;51827;51.186;6.926;2024-03-08T04:46:54;4.23;;;2.87;;
65238;SDS011;51827;51.186;6.926;2024-03-08T04:47:54;3.87;;;2.87;;
65238;SDS011;51827;51.186;6.926;2024-03-08T04:48:54;3.67;;;2.90;;
65238;SDS011;51827;51.186;6.926;2024-03-08T04:49:55;4.33;;;3.07;;
65238;SDS011;51827;51.186;6.926;2024-03-08T04:50:55;3.93;;;2.90;;
65238;SDS011;51827;51.186;6.926;2024-03-08T04:51:55;5.30;;;3.10;;
65238;SDS011;51827;51.186;6.926;2024-03-08T04:52:55;3.60;;;2.70;;
65238;SDS011;51827;51.186;6.926;2024-03-08T04:53:56;4.40;;;2.90;;
65238;SDS011;51827;51.186;6.926;2024-03-08T04:54:56;3.50;;;2.90;;
65238;SDS011;51827;51.186;6.926;2024-03-08T04:55:56;3.80;;;2.90;;
65238;SDS011;51827;51.186;6.926;2024-03-08T04:56:57;4.17;;;3.17;;
65238;SDS011;51827;51.186;6.926;2024-03-08T04:57:57;3.67;;;2.67;;
65238;SDS011;51827;51.186;6.926;2024-03-08T04:58:57;4.43;;;3.00;;
65238;SDS011;51827;51.186;6.926;2024-03-08T04:59:57;4.67;;;3.20;;
65238;SDS011;51827;51.186;6.926;2024-03-08T05:00:58;4.00;;;2.93;;
65238;SDS011;51827;51.186;6.926;2024-03-08T05:01:58;3.73;;;2.87;;
65238;SDS011;51827;51.186;6.926;2024-03-08T05:02:58;6.03;;;2.90;;
65238;SDS011;51827;51.186;6.926;2024-03-08T05:03:59;4.30;;;3.00;;
65238;SDS011;51827;51.186;6.926;2024-03-08T05:04:59;4.70;;;2.77;;
65238;SDS011;51827;51.186;6.926;2024-03-08T05:05:59;4.10;;;2.97;;
65238;SDS011;51827;51.186;6.926;2024-03-08T05:06:59;3.73;;;2.70;;
65238;SDS011;51827;51.186;6.926;2024-03-08T05:07:59;3.53;;;2.80;;
65238;SDS011;51827;51.186;6.926;2024-03-08T05:09:00;8.27;;;3.10;;
65238;SDS011;51827;51.186;6.926;2024-03-08T05:10:00;5.03;;;2.73;;
65238;SDS011;51827;51.186;6.926;2024-03-08T05:11:00;4.90;;;2.97;;
65238;SDS011;51827;51.186;6.926;2024-03-08T05:12:01;5.47;;;2.90;;
65238;SDS011;51827;51.186;6.926;2024-03-08T05:13:01;4.17;;;2.70;;
65238;SDS011;51827;51.186;6.926;2024-03-08T05:14:01;3.97;;;2.67;;
65238;SDS011;51827;51.186;6.926;2024-03-08T05:15:01;4.70;;;3.00;;
65238;SDS011;51827;51.186;6.926;2024-03-08T05:16:02;3.57;;;2.73;;
65238;SDS011;51827;51.186;6.926;2024-03-08T05:17:02;6.57;;;2.75;;
65238;SDS011;51827;51.186;6.926;2024-03-08T05:18:02;3.43;;;2.70;;
65238;SDS011;51827;51.186;6.926;2024-03-08T05:19:03;5.53;;;2.77;;
65238;SDS011;51827;51.186;6.926;2024-03-08T05:20:03;3.77;;;2.60;;
65238;SDS011;51827;51.186;6.926;2024-03-08T05:21:03;3.95;;;2.80;;
65238;SDS011;51827;51.186;6.926;2024-03-08T05:22:04;5.30;;;3.00;;
65238;SDS011;51827;51.186;6.926;2024-03-08T05:23:04;4.83;;;2.57;;
65238;SDS011;51827;51.186;6.926;2024-03-08T05:24:04;4.33;;;3.03;;
65238;SDS011;51827;51.186;6.926;2024-03-08T05:25:05;4.65;;;3.03;;
65238;SDS011;51827;51.186;6.926;2024-03-08T05:26:06;4.38;;;2.88;;
65238;SDS011;51827;51.186;6.926;2024-03-08T05:27:06;4.03;;;2.83;;
65238;SDS011;51827;51.186;6.926;2024-03-08T05:28:06;3.97;;;2.90;;
65238;SDS011;51827;51.186;6.926;2024-03-08T05:29:06;5.70;;;3.10;;
65238;SDS011;51827;51.186;6.926;2024-03-08T05:30:07;4.30;;;2.90;;
65238;SDS011;51827;51.186;6.926;2024-03-08T05:31:08;3.58;;;2.50;;
65238;SDS011;51827;51.186;6.926;2024-03-08T05:32:08;4.87;;;3.13;;
65238;SDS011;51827;51.186;6.926;2024-03-08T05:33:08;9.90;;;3.13;;
65238;SDS011;51827;51.186;6.926;2024-03-08T05:34:09;3.83;;;2.57;;
65238;SDS011;51827;51.186;6.926;2024-03-08T05:35:09;9.73;;;3.20;;
65238;SDS011;51827;51.186;6.926;2024-03-08T05:36:09;4.43;;;3.17;;
65238;SDS011;51827;51.186;6.926;2024-03-08T05:37:09;4.53;;;3.10;;
65238;SDS011;51827;51.186;6.926;2024-03-08T05:38:09;6.73;;;2.93;;
65238;SDS011;51827;51.186;6.926;2024-03-08T05:39:10;3.80;;;2.93;;
65238;SDS011;51827;51.186;6.926;2024-03-08T05:40:12;5.00;;;3.30;;
65238;SDS011;51827;51.186;6.926;2024-03-08T05:41:12;4.47;;;3.10;;
65238;SDS011;51827;51.186;6.926;2024-03-08T05:42:12;4.33;;;3.00;;
65238;SDS011;51827;51.186;6.926;2024-03-08T05:43:12;4.57;;;3.10;;
65238;SDS011;51827;51.186;6.926;2024-03-08T05:44:13;4.53;;;3.00;;
65238;SDS011;51827;51.186;6.926;2024-03-08T05:45:13;6.47;;;3.50;;
65238;SDS011;51827;51.186;6.926;2024-03-08T05:46:15;4.80;;;2.93;;
65238;SDS011;51827;51.186;6.926;2024-03-08T05:47:15;4.75;;;3.00;;
65238;SDS011;51827;51.186;6.926;2024-03-08T05:48:16;3.80;;;3.00;;
65238;SDS011;51827;51.186;6.926;2024-03-08T05:49:16;5.63;;;3.03;;
65238;SDS011;51827;51.186;6.926;2024-03-08T05:50:16;4.40;;;3.10;;
65238;SDS011;51827;51.186;6.926;2024-03-08T05:51:17;4.55;;;3.28;;
65238;SDS011;51827;51.186;6.926;2024-03-08T05:52:17;3.57;;;2.87;;
65238;SDS011;51827;51.186;6.926;2024-03-08T05:53:17;16.57;;;3.23;;
65238;SDS011;51827;51.186;6.926;2024-03-08T05:54:17;15.73;;;5.10;;
65238;SDS011;51827;51.186;6.926;2024-03-08T05:55:18;12.87;;;4.70;;
65238;SDS011;51827;51.186;6.926;2024-03-08T05:56:18;14.30;;;4.93;;
65238;SDS011;51827;51.186;6.926;2024-03-08T05:57:19;17.90;;;6.05;;
65238;SDS011;51827;51.186;6.926;2024-03-08T05:58:19;15.27;;;5.40;;
65238;SDS011;51827;51.186;6.926;2024-03-08T05:59:19;29.87;;;5.60;;
65238;SDS011;51827;51.186;6.926;2024-03-08T06:00:20;13.37;;;5.20;;
65238;SDS011;51827;51.186;6.926;2024-03-08T06:01:20;11.00;;;5.10;;
65238;SDS011;51827;51.186;6.926;2024-03-08T06:02:20;10.27;;;5.07;;
65238;SDS011;51827;51.186;6.926;2024-03-08T06:03:20;14.47;;;4.80;;
65238;SDS011;51827;51.186;6.926;2024-03-08T06:04:21;14.70;;;4.83;;
65238;SDS011;51827;51.186;6.926;2024-03-08T06:05:21;9.00;;;4.90;;
65238;SDS011;51827;51.186;6.926;2024-03-08T06:06:21;11.00;;;4.30;;
65238;SDS011;51827;51.186;6.926;2024-03-08T06:07:22;16.38;;;4.85;;
65238;SDS011;51827;51.186;6.926;2024-03-08T06:08:23;12.50;;;4.63;;